Aguadulce, Spain
Current Conditions -  °F | °C
As of 5:30 PM on Saturday 25 Oct 2014 (Local Time) from LEAM Reporting Station
Clear Clear  
Wind Chill: 84°   Ceiling: Unl
Heat Index: 84°   Visibility: 6mi
Dew Point: 34°   Wind: 15mph
Humidity: 16%   Direction: 90°E
Pressure: 30.03"   Gusts: NA
Location:  36.81°N, 2.57°W
Report Text: LEAM 251530Z 09013KT CAVOK 29/01 Q1017
Loading
Personal Weather Stations






























Interactive Weather Map
Tropical Storm Tracking
New forecast layout! Learn more

10-Day Weather Forecast

Advertisements
Track Severe Weather on mobile